sensor_id;sensor_type;location;lat;lon;timestamp;pressure;altitude;pressure_sealevel;temperature;humidity
44992;BME280;56865;51.618;7.406;2023-04-21T00:01:00;100709.66;;;21.59;81.06
44992;BME280;56865;51.618;7.406;2023-04-21T00:03:34;100708.22;;;21.41;81.01
44992;BME280;56865;51.618;7.406;2023-04-21T00:06:09;100703.78;;;21.48;81.55
44992;BME280;56865;51.618;7.406;2023-04-21T00:08:43;100702.06;;;21.47;80.68
44992;BME280;56865;51.618;7.406;2023-04-21T00:11:13;100701.13;;;21.49;81.10
44992;BME280;56865;51.618;7.406;2023-04-21T00:13:43;100697.59;;;21.55;81.31
44992;BME280;56865;51.618;7.406;2023-04-21T00:16:13;100689.78;;;21.58;81.29
44992;BME280;56865;51.618;7.406;2023-04-21T00:18:43;100690.66;;;21.57;81.54
44992;BME280;56865;51.618;7.406;2023-04-21T00:21:13;100688.72;;;21.68;81.63
44992;BME280;56865;51.618;7.406;2023-04-21T00:23:46;100688.72;;;21.70;81.21
44992;BME280;56865;51.618;7.406;2023-04-21T00:26:19;100688.06;;;21.58;81.22
44992;BME280;56865;51.618;7.406;2023-04-21T00:28:50;100689.75;;;21.61;81.96
44992;BME280;56865;51.618;7.406;2023-04-21T00:31:20;100686.19;;;21.65;81.51
44992;BME280;56865;51.618;7.406;2023-04-21T00:33:50;100678.47;;;21.62;81.41
44992;BME280;56865;51.618;7.406;2023-04-21T00:36:21;100675.72;;;21.71;81.46
44992;BME280;56865;51.618;7.406;2023-04-21T00:38:56;100672.47;;;21.60;81.14
44992;BME280;56865;51.618;7.406;2023-04-21T00:41:29;100669.22;;;21.46;82.90
44992;BME280;56865;51.618;7.406;2023-04-21T00:44:01;100666.47;;;21.55;82.09
44992;BME280;56865;51.618;7.406;2023-04-21T00:46:31;100675.09;;;21.57;81.93
44992;BME280;56865;51.618;7.406;2023-04-21T00:49:03;100672.53;;;21.55;82.21
44992;BME280;56865;51.618;7.406;2023-04-21T00:51:34;100671.66;;;21.53;82.15
44992;BME280;56865;51.618;7.406;2023-04-21T00:54:07;100670.94;;;21.47;82.05
44992;BME280;56865;51.618;7.406;2023-04-21T00:56:37;100669.06;;;21.55;82.15
44992;BME280;56865;51.618;7.406;2023-04-21T00:59:07;100668.31;;;21.48;81.83
44992;BME280;56865;51.618;7.406;2023-04-21T01:01:37;100660.44;;;21.53;81.76
44992;BME280;56865;51.618;7.406;2023-04-21T01:04:07;100659.66;;;21.49;81.25
44992;BME280;56865;51.618;7.406;2023-04-21T01:06:37;100662.34;;;21.45;82.38
44992;BME280;56865;51.618;7.406;2023-04-21T01:09:09;100658.81;;;21.49;82.91
44992;BME280;56865;51.618;7.406;2023-04-21T01:11:40;100666.31;;;21.64;81.85
44992;BME280;56865;51.618;7.406;2023-04-21T01:14:10;100663.88;;;21.55;82.49
44992;BME280;56865;51.618;7.406;2023-04-21T01:16:39;100671.38;;;21.72;82.44
44992;BME280;56865;51.618;7.406;2023-04-21T01:19:10;100675.47;;;21.82;81.94
44992;BME280;56865;51.618;7.406;2023-04-21T01:21:42;100673.81;;;21.80;82.34
44992;BME280;56865;51.618;7.406;2023-04-21T01:24:12;100676.28;;;21.87;82.23
44992;BME280;56865;51.618;7.406;2023-04-21T01:26:41;100672.78;;;21.88;82.68
44992;BME280;56865;51.618;7.406;2023-04-21T01:29:14;100671.88;;;21.89;82.33
44992;BME280;56865;51.618;7.406;2023-04-21T01:31:44;100675.28;;;21.93;82.51
44992;BME280;56865;51.618;7.406;2023-04-21T01:34:14;100681.63;;;21.78;83.65
44992;BME280;56865;51.618;7.406;2023-04-21T01:36:46;100674.09;;;22.10;81.85
44992;BME280;56865;51.618;7.406;2023-04-21T01:39:16;100674.72;;;21.77;82.77
44992;BME280;56865;51.618;7.406;2023-04-21T01:41:46;100675.72;;;21.71;82.69
44992;BME280;56865;51.618;7.406;2023-04-21T01:44:15;100673.19;;;21.67;83.34
44992;BME280;56865;51.618;7.406;2023-04-21T01:46:45;100669.84;;;21.62;84.50
44992;BME280;56865;51.618;7.406;2023-04-21T01:49:14;100675.75;;;21.68;84.04
44992;BME280;56865;51.618;7.406;2023-04-21T01:51:47;100674.69;;;21.30;84.46
44992;BME280;56865;51.618;7.406;2023-04-21T01:54:16;100677.00;;;21.46;84.52
44992;BME280;56865;51.618;7.406;2023-04-21T01:56:46;100674.06;;;21.66;84.12
44992;BME280;56865;51.618;7.406;2023-04-21T01:59:16;100668.81;;;21.70;83.38
44992;BME280;56865;51.618;7.406;2023-04-21T02:01:47;100664.00;;;21.96;84.08
44992;BME280;56865;51.618;7.406;2023-04-21T02:23:16;100668.97;;;22.06;83.58
44992;BME280;56865;51.618;7.406;2023-04-21T02:25:46;100669.25;;;21.92;83.70
44992;BME280;56865;51.618;7.406;2023-04-21T02:28:23;100654.59;;;21.88;84.51
44992;BME280;56865;51.618;7.406;2023-04-21T02:30:53;100643.84;;;21.65;84.57
44992;BME280;56865;51.618;7.406;2023-04-21T02:33:23;100630.84;;;22.08;83.65
44992;BME280;56865;51.618;7.406;2023-04-21T02:35:54;100647.16;;;22.15;84.94
44992;BME280;56865;51.618;7.406;2023-04-21T02:38:26;100654.75;;;22.24;82.39
44992;BME280;56865;51.618;7.406;2023-04-21T02:40:59;100641.81;;;22.23;83.36
44992;BME280;56865;51.618;7.406;2023-04-21T02:43:29;100635.28;;;22.03;91.13
44992;BME280;56865;51.618;7.406;2023-04-21T02:45:59;100645.81;;;21.96;87.58
44992;BME280;56865;51.618;7.406;2023-04-21T02:48:34;100634.56;;;22.39;84.98
44992;BME280;56865;51.618;7.406;2023-04-21T12:59:21;100439.75;;;28.25;82.98
44992;BME280;56865;51.618;7.406;2023-04-21T13:02:03;100436.09;;;27.92;83.59
44992;BME280;56865;51.618;7.406;2023-04-21T13:04:37;100420.31;;;28.11;86.37
44992;BME280;56865;51.618;7.406;2023-04-21T13:07:18;100418.88;;;28.05;83.19
44992;BME280;56865;51.618;7.406;2023-04-21T13:09:54;100419.72;;;28.24;84.83
44992;BME280;56865;51.618;7.406;2023-04-21T13:12:35;100419.09;;;28.18;83.63
44992;BME280;56865;51.618;7.406;2023-04-21T13:15:27;100411.44;;;28.31;83.78
44992;BME280;56865;51.618;7.406;2023-04-21T13:18:07;100420.47;;;29.10;81.25
44992;BME280;56865;51.618;7.406;2023-04-21T13:20:39;100412.28;;;28.49;80.79
44992;BME280;56865;51.618;7.406;2023-04-21T13:23:14;100412.44;;;29.29;80.25
44992;BME280;56865;51.618;7.406;2023-04-21T13:25:45;100416.78;;;30.09;78.68
44992;BME280;56865;51.618;7.406;2023-04-21T13:28:20;100409.38;;;30.30;79.54
44992;BME280;56865;51.618;7.406;2023-04-21T13:30:56;100398.28;;;30.10;76.81
44992;BME280;56865;51.618;7.406;2023-04-21T13:33:29;100394.34;;;30.46;76.67
44992;BME280;56865;51.618;7.406;2023-04-21T13:36:02;100381.66;;;30.39;75.94
44992;BME280;56865;51.618;7.406;2023-04-21T13:38:41;100383.78;;;30.48;74.98
44992;BME280;56865;51.618;7.406;2023-04-21T13:41:21;100384.03;;;30.58;77.68
44992;BME280;56865;51.618;7.406;2023-04-21T13:44:10;100375.97;;;30.61;76.02
44992;BME280;56865;51.618;7.406;2023-04-21T13:46:53;100372.56;;;30.44;74.64
44992;BME280;56865;51.618;7.406;2023-04-21T13:49:48;100365.91;;;30.24;73.65
44992;BME280;56865;51.618;7.406;2023-04-21T13:52:31;100358.94;;;30.09;73.12
44992;BME280;56865;51.618;7.406;2023-04-21T13:55:22;100359.19;;;30.04;73.55
44992;BME280;56865;51.618;7.406;2023-04-21T14:32:57;100303.38;;;29.40;74.93
44992;BME280;56865;51.618;7.406;2023-04-21T15:02:34;100277.56;;;29.16;75.32
44992;BME280;56865;51.618;7.406;2023-04-21T18:33:28;100102.03;;;26.64;80.18
44992;BME280;56865;51.618;7.406;2023-04-21T18:35:58;100095.84;;;26.47;81.78
44992;BME280;56865;51.618;7.406;2023-04-21T18:38:27;100095.34;;;26.58;82.75
44992;BME280;56865;51.618;7.406;2023-04-21T18:41:02;100100.69;;;26.18;79.96
44992;BME280;56865;51.618;7.406;2023-04-21T18:43:43;100103.81;;;26.26;81.48
44992;BME280;56865;51.618;7.406;2023-04-21T18:46:34;100102.19;;;26.24;80.38
44992;BME280;56865;51.618;7.406;2023-04-21T18:52:26;100092.56;;;26.24;83.65
44992;BME280;56865;51.618;7.406;2023-04-21T18:55:34;100095.41;;;26.20;84.21
44992;BME280;56865;51.618;7.406;2023-04-21T18:58:46;100087.81;;;26.15;84.96
44992;BME280;56865;51.618;7.406;2023-04-21T19:01:20;100094.31;;;26.06;84.07
44992;BME280;56865;51.618;7.406;2023-04-21T19:03:54;100089.34;;;25.81;82.64
44992;BME280;56865;51.618;7.406;2023-04-21T19:06:31;100095.38;;;25.62;83.49
44992;BME280;56865;51.618;7.406;2023-04-21T19:09:07;100096.50;;;25.76;82.89
44992;BME280;56865;51.618;7.406;2023-04-21T19:11:40;100098.72;;;25.85;84.53
44992;BME280;56865;51.618;7.406;2023-04-21T19:14:12;100114.56;;;25.61;83.12
44992;BME280;56865;51.618;7.406;2023-04-21T19:16:44;100103.34;;;25.59;84.69
44992;BME280;56865;51.618;7.406;2023-04-21T19:19:15;100109.75;;;25.52;84.68
44992;BME280;56865;51.618;7.406;2023-04-21T19:21:45;100109.94;;;25.47;84.51
44992;BME280;56865;51.618;7.406;2023-04-21T19:24:19;100106.56;;;25.45;84.35
44992;BME280;56865;51.618;7.406;2023-04-21T19:26:49;100110.44;;;25.35;85.58
44992;BME280;56865;51.618;7.406;2023-04-21T19:29:24;100103.22;;;25.42;85.32
44992;BME280;56865;51.618;7.406;2023-04-21T19:31:55;100102.47;;;25.40;84.40
44992;BME280;56865;51.618;7.406;2023-04-21T19:34:25;100111.19;;;25.39;84.72
44992;BME280;56865;51.618;7.406;2023-04-21T19:36:55;100105.38;;;25.32;84.92
44992;BME280;56865;51.618;7.406;2023-04-21T19:39:29;100108.38;;;25.23;85.50
44992;BME280;56865;51.618;7.406;2023-04-21T19:42:01;100112.22;;;25.14;86.65
44992;BME280;56865;51.618;7.406;2023-04-21T19:44:34;100105.94;;;24.97;85.71
44992;BME280;56865;51.618;7.406;2023-04-21T19:47:05;100107.31;;;25.06;85.61
44992;BME280;56865;51.618;7.406;2023-04-21T19:49:35;100101.91;;;24.90;85.59
44992;BME280;56865;51.618;7.406;2023-04-21T19:52:05;100111.06;;;25.01;86.38
44992;BME280;56865;51.618;7.406;2023-04-21T19:54:38;100114.91;;;24.70;84.95
44992;BME280;56865;51.618;7.406;2023-04-21T19:57:08;100103.44;;;24.74;85.94
44992;BME280;56865;51.618;7.406;2023-04-21T19:59:37;100101.69;;;24.74;85.06
44992;BME280;56865;51.618;7.406;2023-04-21T20:02:09;100106.78;;;24.98;86.11
44992;BME280;56865;51.618;7.406;2023-04-21T20:04:39;100109.47;;;24.96;86.05
44992;BME280;56865;51.618;7.406;2023-04-21T20:07:10;100110.66;;;25.10;85.66
44992;BME280;56865;51.618;7.406;2023-04-21T20:09:45;100097.94;;;25.23;86.99
44992;BME280;56865;51.618;7.406;2023-04-21T20:12:20;100101.97;;;25.30;87.12
44992;BME280;56865;51.618;7.406;2023-04-21T20:14:50;100099.22;;;25.33;87.12
44992;BME280;56865;51.618;7.406;2023-04-21T20:17:25;100098.56;;;25.28;87.03
44992;BME280;56865;51.618;7.406;2023-04-21T20:19:55;100101.13;;;25.29;87.06
44992;BME280;56865;51.618;7.406;2023-04-21T20:22:25;100107.84;;;25.35;86.83
44992;BME280;56865;51.618;7.406;2023-04-21T20:24:57;100118.34;;;25.34;86.99
44992;BME280;56865;51.618;7.406;2023-04-21T20:27:28;100117.25;;;25.39;88.11
44992;BME280;56865;51.618;7.406;2023-04-21T20:29:58;100124.91;;;25.44;87.37
44992;BME280;56865;51.618;7.406;2023-04-21T20:32:28;100183.03;;;24.60;87.98
44992;BME280;56865;51.618;7.406;2023-04-21T20:35:03;100209.19;;;24.57;86.82
44992;BME280;56865;51.618;7.406;2023-04-21T20:37:39;100208.88;;;24.19;87.72
44992;BME280;56865;51.618;7.406;2023-04-21T20:40:15;100185.72;;;24.57;86.57
44992;BME280;56865;51.618;7.406;2023-04-21T20:42:47;100175.44;;;25.21;84.06
44992;BME280;56865;51.618;7.406;2023-04-21T20:45:18;100186.63;;;25.23;84.01
44992;BME280;56865;51.618;7.406;2023-04-21T20:47:48;100187.59;;;25.20;83.71
44992;BME280;56865;51.618;7.406;2023-04-21T20:50:19;100176.66;;;25.33;83.45
44992;BME280;56865;51.618;7.406;2023-04-21T20:52:50;100188.91;;;25.30;84.26
44992;BME280;56865;51.618;7.406;2023-04-21T20:55:24;100122.72;;;25.12;84.58
44992;BME280;56865;51.618;7.406;2023-04-21T20:57:56;100108.75;;;25.34;85.14
44992;BME280;56865;51.618;7.406;2023-04-21T21:34:12;100162.34;;;24.78;85.30
44992;BME280;56865;51.618;7.406;2023-04-21T21:36:42;100169.50;;;24.73;85.53
44992;BME280;56865;51.618;7.406;2023-04-21T21:39:12;100177.69;;;24.63;86.43
44992;BME280;56865;51.618;7.406;2023-04-21T21:41:42;100168.28;;;24.59;85.37
44992;BME280;56865;51.618;7.406;2023-04-21T21:44:12;100165.91;;;24.53;86.25
44992;BME280;56865;51.618;7.406;2023-04-21T21:49:51;100169.81;;;24.19;85.26
44992;BME280;56865;51.618;7.406;2023-04-21T21:52:23;100165.78;;;24.10;85.90
44992;BME280;56865;51.618;7.406;2023-04-21T21:54:54;100167.59;;;24.08;85.78
44992;BME280;56865;51.618;7.406;2023-04-21T21:57:26;100180.69;;;24.07;86.34
44992;BME280;56865;51.618;7.406;2023-04-21T21:59:56;100180.09;;;24.22;87.35
44992;BME280;56865;51.618;7.406;2023-04-21T22:02:29;100172.34;;;24.21;87.52
44992;BME280;56865;51.618;7.406;2023-04-21T22:05:09;100156.88;;;24.16;87.18
44992;BME280;56865;51.618;7.406;2023-04-21T22:07:40;100159.16;;;24.25;87.89
44992;BME280;56865;51.618;7.406;2023-04-21T22:10:13;100160.28;;;24.18;87.04
44992;BME280;56865;51.618;7.406;2023-04-21T22:12:43;100152.94;;;24.06;87.25
44992;BME280;56865;51.618;7.406;2023-04-21T22:15:15;100143.88;;;24.16;87.51
44992;BME280;56865;51.618;7.406;2023-04-21T22:17:47;100147.44;;;24.59;85.29
44992;BME280;56865;51.618;7.406;2023-04-21T22:20:22;100150.56;;;24.69;85.09
44992;BME280;56865;51.618;7.406;2023-04-21T22:22:53;100153.66;;;24.55;84.85
44992;BME280;56865;51.618;7.406;2023-04-21T22:25:26;100150.75;;;24.64;85.49
44992;BME280;56865;51.618;7.406;2023-04-21T22:27:58;100148.88;;;24.44;85.01
44992;BME280;56865;51.618;7.406;2023-04-21T22:30:30;100142.34;;;24.34;85.33
44992;BME280;56865;51.618;7.406;2023-04-21T22:33:00;100138.53;;;24.43;84.84
44992;BME280;56865;51.618;7.406;2023-04-21T22:35:37;100144.28;;;24.29;84.77
44992;BME280;56865;51.618;7.406;2023-04-21T22:38:10;100145.97;;;24.06;83.72
44992;BME280;56865;51.618;7.406;2023-04-21T22:40:42;100154.94;;;23.99;84.60
44992;BME280;56865;51.618;7.406;2023-04-21T22:43:12;100148.91;;;23.97;84.49
44992;BME280;56865;51.618;7.406;2023-04-21T22:45:42;100141.16;;;24.19;84.98
44992;BME280;56865;51.618;7.406;2023-04-21T22:48:12;100138.16;;;24.06;84.57
44992;BME280;56865;51.618;7.406;2023-04-21T22:50:49;100141.56;;;24.08;84.48
44992;BME280;56865;51.618;7.406;2023-04-21T22:53:22;100145.25;;;24.02;84.98
44992;BME280;56865;51.618;7.406;2023-04-21T22:55:53;100143.50;;;24.03;84.99
44992;BME280;56865;51.618;7.406;2023-04-21T22:58:31;100153.75;;;23.82;83.73
44992;BME280;56865;51.618;7.406;2023-04-21T23:01:02;100156.78;;;23.95;84.51
44992;BME280;56865;51.618;7.406;2023-04-21T23:03:35;100155.94;;;23.95;85.59
44992;BME280;56865;51.618;7.406;2023-04-21T23:06:07;100153.84;;;24.05;84.05
44992;BME280;56865;51.618;7.406;2023-04-21T23:08:38;100152.44;;;23.70;84.01
44992;BME280;56865;51.618;7.406;2023-04-21T23:11:08;100149.56;;;23.53;83.91
44992;BME280;56865;51.618;7.406;2023-04-21T23:13:37;100149.00;;;23.45;84.12
44992;BME280;56865;51.618;7.406;2023-04-21T23:16:10;100143.25;;;23.60;84.58
44992;BME280;56865;51.618;7.406;2023-04-21T23:18:40;100146.13;;;23.27;83.83
44992;BME280;56865;51.618;7.406;2023-04-21T23:21:14;100143.53;;;23.27;84.23
44992;BME280;56865;51.618;7.406;2023-04-21T23:23:49;100147.25;;;23.20;84.79
44992;BME280;56865;51.618;7.406;2023-04-21T23:26:19;100155.00;;;23.47;84.42
44992;BME280;56865;51.618;7.406;2023-04-21T23:28:54;100153.53;;;23.40;84.86
44992;BME280;56865;51.618;7.406;2023-04-21T23:31:24;100156.50;;;23.00;84.10
44992;BME280;56865;51.618;7.406;2023-04-21T23:33:56;100157.56;;;22.95;83.44
44992;BME280;56865;51.618;7.406;2023-04-21T23:36:32;100152.44;;;23.20;84.09
44992;BME280;56865;51.618;7.406;2023-04-21T23:39:02;100152.72;;;23.11;84.45
44992;BME280;56865;51.618;7.406;2023-04-21T23:41:35;100143.63;;;22.97;83.86
44992;BME280;56865;51.618;7.406;2023-04-21T23:44:08;100144.13;;;22.53;84.20
44992;BME280;56865;51.618;7.406;2023-04-21T23:46:38;100144.06;;;22.55;83.75
44992;BME280;56865;51.618;7.406;2023-04-21T23:49:10;100138.75;;;22.86;84.25
44992;BME280;56865;51.618;7.406;2023-04-21T23:51:52;100131.31;;;22.76;83.83
44992;BME280;56865;51.618;7.406;2023-04-21T23:54:27;100130.38;;;22.20;85.37
44992;BME280;56865;51.618;7.406;2023-04-21T23:57:01;100130.00;;;22.32;85.64
44992;BME280;56865;51.618;7.406;2023-04-21T23:59:33;100130.72;;;22.39;83.79
